sensor_id;sensor_type;location;lat;lon;timestamp;temperature;humidity
7044;DHT22;57890;52.36301240;9.76001620;2022-12-17T00:00:53;2.20;94.10
7044;DHT22;57890;52.36301240;9.76001620;2022-12-17T00:03:37;2.10;94.10
7044;DHT22;57890;52.36301240;9.76001620;2022-12-17T00:06:22;2.10;94.20
7044;DHT22;57890;52.36301240;9.76001620;2022-12-17T00:09:21;2.10;94.10
7044;DHT22;57890;52.36301240;9.76001620;2022-12-17T00:12:07;2.10;94.10
7044;DHT22;57890;52.36301240;9.76001620;2022-12-17T00:14:52;2.10;94.20
7044;DHT22;57890;52.36301240;9.76001620;2022-12-17T00:17:37;2.10;94.20
7044;DHT22;57890;52.36301240;9.76001620;2022-12-17T00:20:21;2.00;94.00
7044;DHT22;57890;52.36301240;9.76001620;2022-12-17T00:23:08;2.00;94.30
7044;DHT22;57890;52.36301240;9.76001620;2022-12-17T00:25:54;2.00;94.20
7044;DHT22;57890;52.36301240;9.76001620;2022-12-17T00:28:41;2.00;94.10
7044;DHT22;57890;52.36301240;9.76001620;2022-12-17T00:31:29;1.90;94.10
7044;DHT22;57890;52.36301240;9.76001620;2022-12-17T00:34:14;1.90;94.20
7044;DHT22;57890;52.36301240;9.76001620;2022-12-17T00:37:00;2.00;94.20
7044;DHT22;57890;52.36301240;9.76001620;2022-12-17T00:39:45;2.00;94.20
7044;DHT22;57890;52.36301240;9.76001620;2022-12-17T00:42:30;1.90;94.10
7044;DHT22;57890;52.36301240;9.76001620;2022-12-17T00:45:17;2.00;94.10
7044;DHT22;57890;52.36301240;9.76001620;2022-12-17T00:48:03;1.90;94.00
7044;DHT22;57890;52.36301240;9.76001620;2022-12-17T00:50:49;1.90;94.00
7044;DHT22;57890;52.36301240;9.76001620;2022-12-17T00:53:34;1.90;94.00
7044;DHT22;57890;52.36301240;9.76001620;2022-12-17T00:56:19;1.80;94.00
7044;DHT22;57890;52.36301240;9.76001620;2022-12-17T00:59:05;1.80;94.00
7044;DHT22;57890;52.36301240;9.76001620;2022-12-17T01:01:51;1.80;94.10
7044;DHT22;57890;52.36301240;9.76001620;2022-12-17T01:04:37;1.70;94.10
7044;DHT22;57890;52.36301240;9.76001620;2022-12-17T01:07:23;1.70;94.10
7044;DHT22;57890;52.36301240;9.76001620;2022-12-17T01:10:07;1.80;94.10
7044;DHT22;57890;52.36301240;9.76001620;2022-12-17T01:12:52;1.80;94.10
7044;DHT22;57890;52.36301240;9.76001620;2022-12-17T01:15:48;1.70;94.00
7044;DHT22;57890;52.36301240;9.76001620;2022-12-17T01:18:34;1.70;93.90
7044;DHT22;57890;52.36301240;9.76001620;2022-12-17T01:21:19;1.70;94.00
7044;DHT22;57890;52.36301240;9.76001620;2022-12-17T01:24:04;1.60;93.90
7044;DHT22;57890;52.36301240;9.76001620;2022-12-17T01:26:49;1.60;93.90
7044;DHT22;57890;52.36301240;9.76001620;2022-12-17T01:29:33;1.60;93.90
7044;DHT22;57890;52.36301240;9.76001620;2022-12-17T01:32:17;1.60;93.90
7044;DHT22;57890;52.36301240;9.76001620;2022-12-17T01:35:03;1.60;93.90
7044;DHT22;57890;52.36301240;9.76001620;2022-12-17T01:37:49;1.60;94.00
7044;DHT22;57890;52.36301240;9.76001620;2022-12-17T01:40:33;1.60;94.00
7044;DHT22;57890;52.36301240;9.76001620;2022-12-17T01:43:30;1.60;93.90
7044;DHT22;57890;52.36301240;9.76001620;2022-12-17T01:46:15;1.60;94.30
7044;DHT22;57890;52.36301240;9.76001620;2022-12-17T01:49:00;1.60;93.90
7044;DHT22;57890;52.36301240;9.76001620;2022-12-17T01:51:59;1.70;94.00
7044;DHT22;57890;52.36301240;9.76001620;2022-12-17T01:54:44;1.70;93.90
7044;DHT22;57890;52.36301240;9.76001620;2022-12-17T01:57:29;1.70;93.90
7044;DHT22;57890;52.36301240;9.76001620;2022-12-17T02:00:15;1.70;93.90
7044;DHT22;57890;52.36301240;9.76001620;2022-12-17T02:03:01;1.70;93.90
7044;DHT22;57890;52.36301240;9.76001620;2022-12-17T02:05:52;1.60;93.70
7044;DHT22;57890;52.36301240;9.76001620;2022-12-17T02:08:46;1.70;93.80
7044;DHT22;57890;52.36301240;9.76001620;2022-12-17T02:11:40;1.70;93.80
7044;DHT22;57890;52.36301240;9.76001620;2022-12-17T02:14:32;1.60;93.70
7044;DHT22;57890;52.36301240;9.76001620;2022-12-17T02:17:21;1.60;93.80
7044;DHT22;57890;52.36301240;9.76001620;2022-12-17T02:20:17;1.60;93.70
7044;DHT22;57890;52.36301240;9.76001620;2022-12-17T02:23:12;1.60;93.70
7044;DHT22;57890;52.36301240;9.76001620;2022-12-17T02:26:09;1.60;93.80
7044;DHT22;57890;52.36301240;9.76001620;2022-12-17T02:28:58;1.50;94.00
7044;DHT22;57890;52.36301240;9.76001620;2022-12-17T02:31:45;1.50;93.60
7044;DHT22;57890;52.36301240;9.76001620;2022-12-17T02:34:31;1.50;93.70
7044;DHT22;57890;52.36301240;9.76001620;2022-12-17T02:37:15;1.50;93.60
7044;DHT22;57890;52.36301240;9.76001620;2022-12-17T02:40:01;1.50;93.70
7044;DHT22;57890;52.36301240;9.76001620;2022-12-17T02:42:47;1.50;93.70
7044;DHT22;57890;52.36301240;9.76001620;2022-12-17T02:45:37;1.40;93.60
7044;DHT22;57890;52.36301240;9.76001620;2022-12-17T02:48:23;1.50;93.70
7044;DHT22;57890;52.36301240;9.76001620;2022-12-17T02:51:09;1.40;93.60
7044;DHT22;57890;52.36301240;9.76001620;2022-12-17T02:54:00;1.40;93.70
7044;DHT22;57890;52.36301240;9.76001620;2022-12-17T02:56:45;1.40;93.60
7044;DHT22;57890;52.36301240;9.76001620;2022-12-17T02:59:31;1.40;93.60
7044;DHT22;57890;52.36301240;9.76001620;2022-12-17T03:02:20;1.40;93.60
7044;DHT22;57890;52.36301240;9.76001620;2022-12-17T03:05:06;1.40;93.70
7044;DHT22;57890;52.36301240;9.76001620;2022-12-17T03:07:52;1.40;93.60
7044;DHT22;57890;52.36301240;9.76001620;2022-12-17T03:10:37;1.40;93.70
7044;DHT22;57890;52.36301240;9.76001620;2022-12-17T03:13:23;1.40;93.70
7044;DHT22;57890;52.36301240;9.76001620;2022-12-17T03:16:09;1.40;93.60
7044;DHT22;57890;52.36301240;9.76001620;2022-12-17T03:18:57;1.40;93.60
7044;DHT22;57890;52.36301240;9.76001620;2022-12-17T03:21:45;1.40;93.70
7044;DHT22;57890;52.36301240;9.76001620;2022-12-17T03:24:31;1.50;93.70
7044;DHT22;57890;52.36301240;9.76001620;2022-12-17T03:27:16;1.50;93.70
7044;DHT22;57890;52.36301240;9.76001620;2022-12-17T03:29:58;1.50;93.70
7044;DHT22;57890;52.36301240;9.76001620;2022-12-17T03:32:43;1.50;93.70
7044;DHT22;57890;52.36301240;9.76001620;2022-12-17T03:35:29;1.50;93.60
7044;DHT22;57890;52.36301240;9.76001620;2022-12-17T03:38:15;1.50;93.50
7044;DHT22;57890;52.36301240;9.76001620;2022-12-17T03:40:59;1.50;93.40
7044;DHT22;57890;52.36301240;9.76001620;2022-12-17T03:43:44;1.50;93.60
7044;DHT22;57890;52.36301240;9.76001620;2022-12-17T03:46:29;1.50;93.40
7044;DHT22;57890;52.36301240;9.76001620;2022-12-17T03:49:25;1.40;93.40
7044;DHT22;57890;52.36301240;9.76001620;2022-12-17T03:52:07;1.40;93.50
7044;DHT22;57890;52.36301240;9.76001620;2022-12-17T03:54:52;1.50;93.60
7044;DHT22;57890;52.36301240;9.76001620;2022-12-17T03:57:36;1.40;93.40
7044;DHT22;57890;52.36301240;9.76001620;2022-12-17T04:00:21;1.30;93.40
7044;DHT22;57890;52.36301240;9.76001620;2022-12-17T04:03:06;1.40;93.80
7044;DHT22;57890;52.36301240;9.76001620;2022-12-17T04:05:50;1.30;93.50
7044;DHT22;57890;52.36301240;9.76001620;2022-12-17T04:08:36;1.30;93.50
7044;DHT22;57890;52.36301240;9.76001620;2022-12-17T04:11:20;1.30;93.40
7044;DHT22;57890;52.36301240;9.76001620;2022-12-17T04:14:10;1.30;93.40
7044;DHT22;57890;52.36301240;9.76001620;2022-12-17T04:16:55;1.30;93.40
7044;DHT22;57890;52.36301240;9.76001620;2022-12-17T04:19:39;1.30;93.30
7044;DHT22;57890;52.36301240;9.76001620;2022-12-17T04:22:24;1.30;93.40
7044;DHT22;57890;52.36301240;9.76001620;2022-12-17T04:25:10;1.30;93.40
7044;DHT22;57890;52.36301240;9.76001620;2022-12-17T04:28:09;1.30;93.30
7044;DHT22;57890;52.36301240;9.76001620;2022-12-17T04:30:53;1.20;93.20
7044;DHT22;57890;52.36301240;9.76001620;2022-12-17T04:33:38;1.20;93.20
7044;DHT22;57890;52.36301240;9.76001620;2022-12-17T04:36:28;1.20;93.30
7044;DHT22;57890;52.36301240;9.76001620;2022-12-17T04:39:13;1.20;93.20
7044;DHT22;57890;52.36301240;9.76001620;2022-12-17T04:41:59;1.20;93.20
7044;DHT22;57890;52.36301240;9.76001620;2022-12-17T04:44:43;1.10;93.10
7044;DHT22;57890;52.36301240;9.76001620;2022-12-17T04:47:28;1.10;92.90
7044;DHT22;57890;52.36301240;9.76001620;2022-12-17T04:50:12;1.10;93.00
7044;DHT22;57890;52.36301240;9.76001620;2022-12-17T04:53:00;1.10;93.00
7044;DHT22;57890;52.36301240;9.76001620;2022-12-17T04:55:45;1.00;92.90
7044;DHT22;57890;52.36301240;9.76001620;2022-12-17T04:58:35;1.00;92.80
7044;DHT22;57890;52.36301240;9.76001620;2022-12-17T05:01:20;1.00;92.90
7044;DHT22;57890;52.36301240;9.76001620;2022-12-17T05:04:05;0.90;92.80
7044;DHT22;57890;52.36301240;9.76001620;2022-12-17T05:06:49;0.90;92.90
7044;DHT22;57890;52.36301240;9.76001620;2022-12-17T05:09:33;0.90;92.80
7044;DHT22;57890;52.36301240;9.76001620;2022-12-17T05:12:18;0.90;92.80
7044;DHT22;57890;52.36301240;9.76001620;2022-12-17T05:15:05;0.90;92.80
7044;DHT22;57890;52.36301240;9.76001620;2022-12-17T05:17:52;0.80;92.60
7044;DHT22;57890;52.36301240;9.76001620;2022-12-17T05:20:37;0.80;92.70
7044;DHT22;57890;52.36301240;9.76001620;2022-12-17T05:23:21;0.90;92.70
7044;DHT22;57890;52.36301240;9.76001620;2022-12-17T05:26:12;0.80;92.60
7044;DHT22;57890;52.36301240;9.76001620;2022-12-17T05:28:58;0.80;92.80
7044;DHT22;57890;52.36301240;9.76001620;2022-12-17T05:31:44;0.80;92.60
7044;DHT22;57890;52.36301240;9.76001620;2022-12-17T05:34:28;0.80;92.50
7044;DHT22;57890;52.36301240;9.76001620;2022-12-17T05:37:24;0.80;92.60
7044;DHT22;57890;52.36301240;9.76001620;2022-12-17T05:40:10;0.70;92.40
7044;DHT22;57890;52.36301240;9.76001620;2022-12-17T05:42:55;0.70;92.50
7044;DHT22;57890;52.36301240;9.76001620;2022-12-17T05:45:40;0.70;92.50
7044;DHT22;57890;52.36301240;9.76001620;2022-12-17T05:48:35;0.80;92.40
7044;DHT22;57890;52.36301240;9.76001620;2022-12-17T05:51:20;0.70;92.40
7044;DHT22;57890;52.36301240;9.76001620;2022-12-17T05:54:05;0.80;92.40
7044;DHT22;57890;52.36301240;9.76001620;2022-12-17T05:56:50;0.80;92.50
7044;DHT22;57890;52.36301240;9.76001620;2022-12-17T05:59:35;0.80;92.80
7044;DHT22;57890;52.36301240;9.76001620;2022-12-17T06:02:19;0.80;92.30
7044;DHT22;57890;52.36301240;9.76001620;2022-12-17T06:05:06;0.80;92.40
7044;DHT22;57890;52.36301240;9.76001620;2022-12-17T06:07:51;0.80;92.10
7044;DHT22;57890;52.36301240;9.76001620;2022-12-17T06:10:36;0.70;92.20
7044;DHT22;57890;52.36301240;9.76001620;2022-12-17T06:13:20;0.70;92.10
7044;DHT22;57890;52.36301240;9.76001620;2022-12-17T06:16:05;0.70;92.10
7044;DHT22;57890;52.36301240;9.76001620;2022-12-17T06:18:50;0.70;92.10
7044;DHT22;57890;52.36301240;9.76001620;2022-12-17T06:21:36;0.60;91.90
7044;DHT22;57890;52.36301240;9.76001620;2022-12-17T06:24:21;0.60;92.00
7044;DHT22;57890;52.36301240;9.76001620;2022-12-17T06:27:05;0.60;92.00
7044;DHT22;57890;52.36301240;9.76001620;2022-12-17T06:29:50;0.60;91.90
7044;DHT22;57890;52.36301240;9.76001620;2022-12-17T06:32:34;0.60;91.90
7044;DHT22;57890;52.36301240;9.76001620;2022-12-17T06:35:19;0.60;91.90
7044;DHT22;57890;52.36301240;9.76001620;2022-12-17T06:38:06;0.60;92.00
7044;DHT22;57890;52.36301240;9.76001620;2022-12-17T06:40:50;0.50;91.70
7044;DHT22;57890;52.36301240;9.76001620;2022-12-17T06:43:35;0.50;91.90
7044;DHT22;57890;52.36301240;9.76001620;2022-12-17T06:46:20;0.50;91.80
7044;DHT22;57890;52.36301240;9.76001620;2022-12-17T06:49:05;0.50;91.80
7044;DHT22;57890;52.36301240;9.76001620;2022-12-17T06:51:49;0.50;91.80
7044;DHT22;57890;52.36301240;9.76001620;2022-12-17T06:54:35;0.50;91.80
7044;DHT22;57890;52.36301240;9.76001620;2022-12-17T06:57:20;0.50;91.90
7044;DHT22;57890;52.36301240;9.76001620;2022-12-17T07:00:05;0.50;91.90
7044;DHT22;57890;52.36301240;9.76001620;2022-12-17T07:02:54;0.50;91.90
7044;DHT22;57890;52.36301240;9.76001620;2022-12-17T07:05:39;0.50;91.80
7044;DHT22;57890;52.36301240;9.76001620;2022-12-17T07:08:24;0.50;91.80
7044;DHT22;57890;52.36301240;9.76001620;2022-12-17T07:11:10;0.40;91.60
7044;DHT22;57890;52.36301240;9.76001620;2022-12-17T07:14:02;0.40;91.70
7044;DHT22;57890;52.36301240;9.76001620;2022-12-17T07:16:47;0.30;91.60
7044;DHT22;57890;52.36301240;9.76001620;2022-12-17T07:19:31;0.30;91.60
7044;DHT22;57890;52.36301240;9.76001620;2022-12-17T07:22:15;0.30;91.40
7044;DHT22;57890;52.36301240;9.76001620;2022-12-17T07:25:00;0.20;91.40
7044;DHT22;57890;52.36301240;9.76001620;2022-12-17T07:27:52;0.20;91.50
7044;DHT22;57890;52.36301240;9.76001620;2022-12-17T07:30:37;0.20;91.50
7044;DHT22;57890;52.36301240;9.76001620;2022-12-17T07:33:22;0.20;91.50
7044;DHT22;57890;52.36301240;9.76001620;2022-12-17T07:36:07;0.10;91.30
7044;DHT22;57890;52.36301240;9.76001620;2022-12-17T07:38:51;0.10;91.40
7044;DHT22;57890;52.36301240;9.76001620;2022-12-17T07:41:36;0.10;91.40
7044;DHT22;57890;52.36301240;9.76001620;2022-12-17T07:44:22;0.00;91.30
7044;DHT22;57890;52.36301240;9.76001620;2022-12-17T07:47:06;0.10;91.60
7044;DHT22;57890;52.36301240;9.76001620;2022-12-17T07:49:51;0.00;91.40
7044;DHT22;57890;52.36301240;9.76001620;2022-12-17T07:52:36;0.10;91.50
7044;DHT22;57890;52.36301240;9.76001620;2022-12-17T07:55:20;0.00;91.40
7044;DHT22;57890;52.36301240;9.76001620;2022-12-17T07:58:07;0.00;91.30
7044;DHT22;57890;52.36301240;9.76001620;2022-12-17T08:00:54;0.00;91.20
7044;DHT22;57890;52.36301240;9.76001620;2022-12-17T08:03:39;0.00;91.30
7044;DHT22;57890;52.36301240;9.76001620;2022-12-17T08:06:35;-0.10;91.20
7044;DHT22;57890;52.36301240;9.76001620;2022-12-17T08:09:19;-0.10;91.30
7044;DHT22;57890;52.36301240;9.76001620;2022-12-17T08:12:04;-0.10;91.40
7044;DHT22;57890;52.36301240;9.76001620;2022-12-17T08:14:49;-0.10;91.30
7044;DHT22;57890;52.36301240;9.76001620;2022-12-17T08:17:35;-0.10;91.40
7044;DHT22;57890;52.36301240;9.76001620;2022-12-17T08:20:20;-0.10;91.30
7044;DHT22;57890;52.36301240;9.76001620;2022-12-17T08:23:05;-0.10;91.30
7044;DHT22;57890;52.36301240;9.76001620;2022-12-17T08:25:49;-0.20;91.20
7044;DHT22;57890;52.36301240;9.76001620;2022-12-17T08:28:34;-0.20;91.20
7044;DHT22;57890;52.36301240;9.76001620;2022-12-17T08:31:19;-0.20;91.20
7044;DHT22;57890;52.36301240;9.76001620;2022-12-17T08:34:06;-0.20;91.10
7044;DHT22;57890;52.36301240;9.76001620;2022-12-17T08:36:51;-0.20;91.00
7044;DHT22;57890;52.36301240;9.76001620;2022-12-17T08:39:35;-0.20;91.20
7044;DHT22;57890;52.36301240;9.76001620;2022-12-17T08:42:20;-0.30;91.10
7044;DHT22;57890;52.36301240;9.76001620;2022-12-17T08:45:05;-0.30;91.10
7044;DHT22;57890;52.36301240;9.76001620;2022-12-17T08:47:50;-0.30;91.10
7044;DHT22;57890;52.36301240;9.76001620;2022-12-17T08:50:36;-0.30;91.20
7044;DHT22;57890;52.36301240;9.76001620;2022-12-17T08:53:21;-0.30;91.00
7044;DHT22;57890;52.36301240;9.76001620;2022-12-17T08:56:06;-0.30;91.20
7044;DHT22;57890;52.36301240;9.76001620;2022-12-17T08:58:51;-0.20;91.20
7044;DHT22;57890;52.36301240;9.76001620;2022-12-17T09:01:35;-0.20;91.30
7044;DHT22;57890;52.36301240;9.76001620;2022-12-17T09:04:20;-0.20;91.20
7044;DHT22;57890;52.36301240;9.76001620;2022-12-17T09:07:06;-0.20;91.20
7044;DHT22;57890;52.36301240;9.76001620;2022-12-17T09:09:50;-0.20;91.20
7044;DHT22;57890;52.36301240;9.76001620;2022-12-17T09:12:35;-0.20;91.20
7044;DHT22;57890;52.36301240;9.76001620;2022-12-17T09:15:20;-0.10;91.30
7044;DHT22;57890;52.36301240;9.76001620;2022-12-17T09:18:04;-0.10;91.20
7044;DHT22;57890;52.36301240;9.76001620;2022-12-17T09:20:52;-0.10;91.30
7044;DHT22;57890;52.36301240;9.76001620;2022-12-17T09:23:38;-0.10;91.30
7044;DHT22;57890;52.36301240;9.76001620;2022-12-17T09:26:23;-0.10;91.20
7044;DHT22;57890;52.36301240;9.76001620;2022-12-17T09:29:08;0.00;91.30
7044;DHT22;57890;52.36301240;9.76001620;2022-12-17T09:31:53;0.00;91.20
7044;DHT22;57890;52.36301240;9.76001620;2022-12-17T09:34:37;0.00;91.20
7044;DHT22;57890;52.36301240;9.76001620;2022-12-17T09:37:22;0.00;91.20
7044;DHT22;57890;52.36301240;9.76001620;2022-12-17T09:40:15;0.00;91.30
7044;DHT22;57890;52.36301240;9.76001620;2022-12-17T09:43:05;0.10;91.50
7044;DHT22;57890;52.36301240;9.76001620;2022-12-17T09:45:58;0.10;91.30
7044;DHT22;57890;52.36301240;9.76001620;2022-12-17T09:49:03;0.10;91.40
7044;DHT22;57890;52.36301240;9.76001620;2022-12-17T09:51:49;0.20;91.50
7044;DHT22;57890;52.36301240;9.76001620;2022-12-17T09:54:37;0.30;91.60
7044;DHT22;57890;52.36301240;9.76001620;2022-12-17T09:57:27;0.30;91.50
7044;DHT22;57890;52.36301240;9.76001620;2022-12-17T10:00:14;0.30;91.50
7044;DHT22;57890;52.36301240;9.76001620;2022-12-17T10:03:00;0.40;91.60
7044;DHT22;57890;52.36301240;9.76001620;2022-12-17T10:05:46;0.50;91.60
7044;DHT22;57890;52.36301240;9.76001620;2022-12-17T10:08:31;0.50;91.70
7044;DHT22;57890;52.36301240;9.76001620;2022-12-17T10:11:20;0.60;91.70
7044;DHT22;57890;52.36301240;9.76001620;2022-12-17T10:14:16;0.70;91.70
7044;DHT22;57890;52.36301240;9.76001620;2022-12-17T10:17:01;0.70;91.70
7044;DHT22;57890;52.36301240;9.76001620;2022-12-17T10:19:51;0.80;91.60
7044;DHT22;57890;52.36301240;9.76001620;2022-12-17T10:22:44;0.90;91.80
7044;DHT22;57890;52.36301240;9.76001620;2022-12-17T10:25:29;1.00;91.90
7044;DHT22;57890;52.36301240;9.76001620;2022-12-17T10:28:15;0.90;91.40
7044;DHT22;57890;52.36301240;9.76001620;2022-12-17T10:31:06;1.00;92.40
7044;DHT22;57890;52.36301240;9.76001620;2022-12-17T10:33:54;0.90;91.70
7044;DHT22;57890;52.36301240;9.76001620;2022-12-17T10:36:44;1.00;91.80
7044;DHT22;57890;52.36301240;9.76001620;2022-12-17T10:39:29;1.00;91.80
7044;DHT22;57890;52.36301240;9.76001620;2022-12-17T10:42:22;1.00;91.80
7044;DHT22;57890;52.36301240;9.76001620;2022-12-17T10:45:25;1.00;91.80
7044;DHT22;57890;52.36301240;9.76001620;2022-12-17T10:48:19;1.10;91.90
7044;DHT22;57890;52.36301240;9.76001620;2022-12-17T10:51:16;1.10;92.00
7044;DHT22;57890;52.36301240;9.76001620;2022-12-17T10:54:07;1.10;91.90
7044;DHT22;57890;52.36301240;9.76001620;2022-12-17T10:56:54;1.10;92.00
7044;DHT22;57890;52.36301240;9.76001620;2022-12-17T10:59:40;1.10;91.90
7044;DHT22;57890;52.36301240;9.76001620;2022-12-17T11:02:28;1.20;92.00
7044;DHT22;57890;52.36301240;9.76001620;2022-12-17T11:05:22;1.30;92.10
7044;DHT22;57890;52.36301240;9.76001620;2022-12-17T11:08:10;1.40;92.20
7044;DHT22;57890;52.36301240;9.76001620;2022-12-17T11:10:55;1.40;92.10
7044;DHT22;57890;52.36301240;9.76001620;2022-12-17T11:13:43;1.50;92.20
7044;DHT22;57890;52.36301240;9.76001620;2022-12-17T11:16:32;1.60;92.20
7044;DHT22;57890;52.36301240;9.76001620;2022-12-17T11:19:37;1.60;92.10
7044;DHT22;57890;52.36301240;9.76001620;2022-12-17T11:22:30;1.60;91.90
7044;DHT22;57890;52.36301240;9.76001620;2022-12-17T11:25:27;1.60;92.10
7044;DHT22;57890;52.36301240;9.76001620;2022-12-17T11:28:22;1.60;92.10
7044;DHT22;57890;52.36301240;9.76001620;2022-12-17T11:31:21;1.60;91.90
7044;DHT22;57890;52.36301240;9.76001620;2022-12-17T11:34:15;1.70;92.30
7044;DHT22;57890;52.36301240;9.76001620;2022-12-17T11:37:09;1.70;92.00
7044;DHT22;57890;52.36301240;9.76001620;2022-12-17T11:40:05;1.70;92.10
7044;DHT22;57890;52.36301240;9.76001620;2022-12-17T11:42:57;1.80;92.30
7044;DHT22;57890;52.36301240;9.76001620;2022-12-17T11:45:52;1.80;92.20
7044;DHT22;57890;52.36301240;9.76001620;2022-12-17T11:48:45;1.90;92.30
7044;DHT22;57890;52.36301240;9.76001620;2022-12-17T11:51:37;2.00;92.40
7044;DHT22;57890;52.36301240;9.76001620;2022-12-17T11:54:28;2.20;92.40
7044;DHT22;57890;52.36301240;9.76001620;2022-12-17T11:57:21;2.30;92.40
7044;DHT22;57890;52.36301240;9.76001620;2022-12-17T12:00:14;2.40;92.30
7044;DHT22;57890;52.36301240;9.76001620;2022-12-17T12:03:07;2.50;92.40
7044;DHT22;57890;52.36301240;9.76001620;2022-12-17T12:05:57;2.60;92.30
7044;DHT22;57890;52.36301240;9.76001620;2022-12-17T12:08:48;2.70;92.40
7044;DHT22;57890;52.36301240;9.76001620;2022-12-17T12:11:39;2.80;92.30
7044;DHT22;57890;52.36301240;9.76001620;2022-12-17T12:14:33;2.90;92.40
7044;DHT22;57890;52.36301240;9.76001620;2022-12-17T12:17:32;3.00;92.40
7044;DHT22;57890;52.36301240;9.76001620;2022-12-17T12:20:32;3.20;92.50
7044;DHT22;57890;52.36301240;9.76001620;2022-12-17T12:23:24;3.30;92.60
7044;DHT22;57890;52.36301240;9.76001620;2022-12-17T12:26:14;3.30;92.30
7044;DHT22;57890;52.36301240;9.76001620;2022-12-17T12:29:09;3.40;92.40
7044;DHT22;57890;52.36301240;9.76001620;2022-12-17T12:32:01;3.50;92.40
7044;DHT22;57890;52.36301240;9.76001620;2022-12-17T12:35:02;3.60;92.50
7044;DHT22;57890;52.36301240;9.76001620;2022-12-17T12:37:47;3.60;92.40
7044;DHT22;57890;52.36301240;9.76001620;2022-12-17T12:40:37;3.80;92.50
7044;DHT22;57890;52.36301240;9.76001620;2022-12-17T12:43:26;3.90;92.40
7044;DHT22;57890;52.36301240;9.76001620;2022-12-17T12:46:16;3.90;92.30
7044;DHT22;57890;52.36301240;9.76001620;2022-12-17T12:49:13;3.90;92.40
7044;DHT22;57890;52.36301240;9.76001620;2022-12-17T12:52:01;4.00;92.30
7044;DHT22;57890;52.36301240;9.76001620;2022-12-17T12:54:51;4.10;92.40
7044;DHT22;57890;52.36301240;9.76001620;2022-12-17T12:57:38;4.10;92.40
7044;DHT22;57890;52.36301240;9.76001620;2022-12-17T13:00:32;4.10;92.30
7044;DHT22;57890;52.36301240;9.76001620;2022-12-17T13:03:29;4.20;92.40
7044;DHT22;57890;52.36301240;9.76001620;2022-12-17T13:06:39;4.20;92.30
7044;DHT22;57890;52.36301240;9.76001620;2022-12-17T13:09:28;4.20;92.10
7044;DHT22;57890;52.36301240;9.76001620;2022-12-17T13:12:13;4.20;92.30
7044;DHT22;57890;52.36301240;9.76001620;2022-12-17T13:14:46;4.20;92.30
7044;DHT22;57890;52.36301240;9.76001620;2022-12-17T13:17:29;4.20;92.20
7044;DHT22;57890;52.36301240;9.76001620;2022-12-17T13:22:50;4.20;92.20
7044;DHT22;57890;52.36301240;9.76001620;2022-12-17T13:25:20;4.20;92.20
7044;DHT22;57890;52.36301240;9.76001620;2022-12-17T13:27:48;4.20;92.30
7044;DHT22;57890;52.36301240;9.76001620;2022-12-17T13:30:22;4.30;92.20
7044;DHT22;57890;52.36301240;9.76001620;2022-12-17T13:33:08;4.30;92.10
7044;DHT22;57890;52.36301240;9.76001620;2022-12-17T13:35:41;4.30;92.10
7044;DHT22;57890;52.36301240;9.76001620;2022-12-17T13:38:17;4.30;92.10
7044;DHT22;57890;52.36301240;9.76001620;2022-12-17T13:40:56;4.40;92.10
7044;DHT22;57890;52.36301240;9.76001620;2022-12-17T13:43:30;4.40;92.50
7044;DHT22;57890;52.36301240;9.76001620;2022-12-17T13:45:59;4.50;91.90
7044;DHT22;57890;52.36301240;9.76001620;2022-12-17T13:48:27;4.50;91.80
7044;DHT22;57890;52.36301240;9.76001620;2022-12-17T13:50:55;4.50;91.70
7044;DHT22;57890;52.36301240;9.76001620;2022-12-17T13:53:26;4.40;91.60
7044;DHT22;57890;52.36301240;9.76001620;2022-12-17T13:55:55;4.40;91.60
7044;DHT22;57890;52.36301240;9.76001620;2022-12-17T13:58:24;4.30;91.50
7044;DHT22;57890;52.36301240;9.76001620;2022-12-17T14:01:03;4.20;91.60
7044;DHT22;57890;52.36301240;9.76001620;2022-12-17T14:03:30;4.20;91.60
7044;DHT22;57890;52.36301240;9.76001620;2022-12-17T14:05:57;4.10;91.60
7044;DHT22;57890;52.36301240;9.76001620;2022-12-17T14:08:28;4.00;91.60
7044;DHT22;57890;52.36301240;9.76001620;2022-12-17T14:10:57;4.10;91.40
7044;DHT22;57890;52.36301240;9.76001620;2022-12-17T14:13:38;4.00;91.20
7044;DHT22;57890;52.36301240;9.76001620;2022-12-17T14:16:06;3.90;91.20
7044;DHT22;57890;52.36301240;9.76001620;2022-12-17T14:18:33;3.90;91.30
7044;DHT22;57890;52.36301240;9.76001620;2022-12-17T14:21:00;3.80;91.40
7044;DHT22;57890;52.36301240;9.76001620;2022-12-17T14:23:31;3.70;91.60
7044;DHT22;57890;52.36301240;9.76001620;2022-12-17T14:25:59;3.70;91.30
7044;DHT22;57890;52.36301240;9.76001620;2022-12-17T14:28:29;3.60;91.30
7044;DHT22;57890;52.36301240;9.76001620;2022-12-17T14:31:03;3.50;91.40
7044;DHT22;57890;52.36301240;9.76001620;2022-12-17T14:33:32;3.50;91.40
7044;DHT22;57890;52.36301240;9.76001620;2022-12-17T14:36:05;3.40;91.40
7044;DHT22;57890;52.36301240;9.76001620;2022-12-17T14:38:36;3.40;91.50
7044;DHT22;57890;52.36301240;9.76001620;2022-12-17T14:41:08;3.40;91.70
7044;DHT22;57890;52.36301240;9.76001620;2022-12-17T14:43:55;3.30;91.50
7044;DHT22;57890;52.36301240;9.76001620;2022-12-17T14:46:22;3.30;91.60
7044;DHT22;57890;52.36301240;9.76001620;2022-12-17T14:48:53;3.30;91.60
7044;DHT22;57890;52.36301240;9.76001620;2022-12-17T14:51:29;3.20;91.60
7044;DHT22;57890;52.36301240;9.76001620;2022-12-17T14:54:12;3.20;91.50
7044;DHT22;57890;52.36301240;9.76001620;2022-12-17T14:56:43;3.10;91.50
7044;DHT22;57890;52.36301240;9.76001620;2022-12-17T14:59:29;3.10;91.50
7044;DHT22;57890;52.36301240;9.76001620;2022-12-17T15:01:58;3.10;91.60
7044;DHT22;57890;52.36301240;9.76001620;2022-12-17T15:04:25;3.00;91.60
7044;DHT22;57890;52.36301240;9.76001620;2022-12-17T15:06:53;3.00;91.50
7044;DHT22;57890;52.36301240;9.76001620;2022-12-17T15:09:22;2.90;91.60
7044;DHT22;57890;52.36301240;9.76001620;2022-12-17T15:11:49;2.90;91.60
7044;DHT22;57890;52.36301240;9.76001620;2022-12-17T15:14:16;2.90;91.60
7044;DHT22;57890;52.36301240;9.76001620;2022-12-17T15:16:43;2.80;91.60
7044;DHT22;57890;52.36301240;9.76001620;2022-12-17T15:19:10;2.80;91.50
7044;DHT22;57890;52.36301240;9.76001620;2022-12-17T15:21:38;2.80;91.50
7044;DHT22;57890;52.36301240;9.76001620;2022-12-17T15:24:08;2.70;91.60
7044;DHT22;57890;52.36301240;9.76001620;2022-12-17T15:26:37;2.70;91.60